createdAt,value
2023-04-22T00:00:10.160Z,2.40
2023-04-22T00:02:38.905Z,2.07
2023-04-22T00:05:07.977Z,2.03
2023-04-22T00:07:36.092Z,2.07
2023-04-22T00:10:04.308Z,1.80
2023-04-22T00:12:32.274Z,1.60
2023-04-22T00:15:01.818Z,2.07
2023-04-22T00:17:29.823Z,2.00
2023-04-22T00:19:57.826Z,1.97
2023-04-22T00:22:25.740Z,2.37
2023-04-22T00:24:53.662Z,2.03
2023-04-22T00:27:21.601Z,2.60
2023-04-22T00:29:49.665Z,2.07
2023-04-22T00:32:19.962Z,2.77
2023-04-22T00:34:47.895Z,3.60
2023-04-22T00:37:15.804Z,3.20
2023-04-22T00:39:43.851Z,4.23
2023-04-22T00:42:11.794Z,3.40
2023-04-22T00:44:39.770Z,3.90
2023-04-22T00:47:07.838Z,4.60
2023-04-22T00:49:37.878Z,3.53
2023-04-22T00:52:06.889Z,4.40
2023-04-22T00:54:35.412Z,4.30
2023-04-22T00:57:04.000Z,4.43
2023-04-22T00:59:31.962Z,3.60
2023-04-22T01:01:59.886Z,4.40
2023-04-22T01:04:28.056Z,4.30
2023-04-22T01:06:57.374Z,3.30
2023-04-22T01:09:25.334Z,3.73
2023-04-22T01:11:53.277Z,3.50
2023-04-22T01:14:21.164Z,4.90
2023-04-22T01:16:49.242Z,3.60
2023-04-22T01:19:17.231Z,4.90
2023-04-22T01:21:46.124Z,3.53
2023-04-22T01:24:15.429Z,2.80
2023-04-22T01:26:43.366Z,3.67
2023-04-22T01:29:11.272Z,3.50
2023-04-22T01:31:39.380Z,3.13
2023-04-22T01:34:07.341Z,3.10
2023-04-22T01:36:35.340Z,3.20
2023-04-22T01:39:03.313Z,2.70
2023-04-22T01:41:32.753Z,3.10
2023-04-22T01:44:00.720Z,2.90
2023-04-22T01:46:28.818Z,3.03
2023-04-22T01:48:56.766Z,4.53
2023-04-22T01:51:24.700Z,3.23
2023-04-22T01:53:52.675Z,4.70
2023-04-22T01:56:21.453Z,4.03
2023-04-22T01:58:51.019Z,4.00
2023-04-22T02:01:18.986Z,4.00
2023-04-22T02:03:47.078Z,4.30
2023-04-22T02:06:15.062Z,4.90
2023-04-22T02:08:43.015Z,4.53
2023-04-22T02:11:11.050Z,3.67
2023-04-22T02:13:39.131Z,4.07
2023-04-22T02:16:09.433Z,4.93
2023-04-22T02:18:37.496Z,3.20
2023-04-22T02:21:05.556Z,4.37
2023-04-22T02:23:33.534Z,4.30
2023-04-22T02:26:01.637Z,5.50
2023-04-22T02:28:29.561Z,5.50
2023-04-22T02:30:57.537Z,4.20
2023-04-22T02:33:26.868Z,4.47
2023-04-22T02:35:54.834Z,4.97
2023-04-22T02:38:22.756Z,5.10
2023-04-22T02:40:50.672Z,4.30
2023-04-22T02:43:18.635Z,4.77
2023-04-22T02:45:48.621Z,5.30
2023-04-22T02:48:16.551Z,4.13
2023-04-22T02:50:45.916Z,4.83
2023-04-22T02:53:13.843Z,4.10
2023-04-22T02:55:42.331Z,4.00
2023-04-22T02:58:10.670Z,6.10
2023-04-22T03:00:38.686Z,5.97
2023-04-22T03:03:06.903Z,6.70
2023-04-22T03:05:34.975Z,7.40
2023-04-22T03:08:04.291Z,4.33
2023-04-22T03:10:32.502Z,3.70
2023-04-22T03:13:00.512Z,3.20
2023-04-22T03:15:28.473Z,4.30
2023-04-22T03:17:56.496Z,3.83
2023-04-22T03:20:24.454Z,3.27
2023-04-22T03:22:52.327Z,4.53
2023-04-22T03:25:21.701Z,3.87
2023-04-22T03:27:49.662Z,5.20
2023-04-22T03:30:17.642Z,5.93
2023-04-22T03:32:45.636Z,3.83
2023-04-22T03:35:13.771Z,4.57
2023-04-22T03:37:42.022Z,4.33
2023-04-22T03:40:13.491Z,3.03
2023-04-22T03:42:43.033Z,3.27
2023-04-22T03:45:11.739Z,4.40
2023-04-22T03:47:39.705Z,4.20
2023-04-22T03:50:08.459Z,4.10
2023-04-22T03:52:36.428Z,5.20
2023-04-22T03:55:04.519Z,5.20
2023-04-22T03:57:32.496Z,6.07
2023-04-22T04:00:01.819Z,5.50
2023-04-22T04:02:29.874Z,6.37
2023-04-22T04:04:58.229Z,6.43
2023-04-22T04:07:26.423Z,6.27
2023-04-22T04:09:54.370Z,7.23
2023-04-22T04:12:22.316Z,7.50
2023-04-22T04:14:50.231Z,5.30
2023-04-22T04:17:19.604Z,6.60
2023-04-22T04:19:47.565Z,5.40
2023-04-22T04:22:15.495Z,6.40
2023-04-22T04:24:43.972Z,5.87
2023-04-22T04:27:11.973Z,7.17
2023-04-22T04:29:41.580Z,6.97
2023-04-22T04:32:10.068Z,6.90
2023-04-22T04:34:39.515Z,6.70
2023-04-22T04:37:07.500Z,6.03
2023-04-22T04:39:35.470Z,6.87
2023-04-22T04:42:04.044Z,5.40
2023-04-22T04:44:32.205Z,7.10
2023-04-22T04:47:00.189Z,6.23
2023-04-22T04:49:30.738Z,6.30
2023-04-22T04:52:00.179Z,5.30
2023-04-22T04:54:28.160Z,5.17
2023-04-22T04:56:57.384Z,5.77
2023-04-22T04:59:25.379Z,5.90
2023-04-22T05:01:53.438Z,5.73
2023-04-22T05:04:21.985Z,6.70
2023-04-22T05:06:50.175Z,5.10
2023-04-22T05:09:19.684Z,7.30
2023-04-22T05:11:47.610Z,6.90
2023-04-22T05:14:15.590Z,6.30
2023-04-22T05:16:43.633Z,6.90
2023-04-22T05:19:11.548Z,5.70
2023-04-22T05:21:39.470Z,6.20
2023-04-22T05:24:07.857Z,5.03
2023-04-22T05:26:37.260Z,4.87
2023-04-22T05:29:05.386Z,6.50
2023-04-22T05:31:33.944Z,5.20
2023-04-22T05:34:01.927Z,5.37
2023-04-22T05:36:31.603Z,5.23
2023-04-22T05:38:59.594Z,6.50
2023-04-22T05:41:27.498Z,7.57
2023-04-22T05:43:56.779Z,6.17
2023-04-22T05:46:24.752Z,5.00
2023-04-22T05:48:52.737Z,5.80
2023-04-22T05:51:20.694Z,5.20
2023-04-22T05:53:48.617Z,4.70
2023-04-22T05:56:16.528Z,4.30
2023-04-22T05:58:44.445Z,3.60
2023-04-22T06:01:13.807Z,3.97
2023-04-22T06:03:42.060Z,3.30
2023-04-22T06:06:10.348Z,2.67
2023-04-22T06:08:38.312Z,2.40
2023-04-22T06:11:06.378Z,2.80
2023-04-22T06:13:34.331Z,3.10
2023-04-22T06:16:02.630Z,2.10
2023-04-22T06:18:32.469Z,2.47
2023-04-22T06:21:00.423Z,3.03
2023-04-22T06:23:28.402Z,2.87
2023-04-22T06:25:58.487Z,3.43
2023-04-22T06:28:26.487Z,3.53
2023-04-22T06:30:54.480Z,2.30
2023-04-22T06:33:22.470Z,3.03
2023-04-22T06:35:51.797Z,3.80
2023-04-22T06:38:19.736Z,3.47
2023-04-22T06:40:47.714Z,3.63
2023-04-22T06:43:15.642Z,3.83
2023-04-22T06:45:43.599Z,4.77
2023-04-22T06:48:11.539Z,4.20
2023-04-22T06:50:39.441Z,5.57
2023-04-22T06:53:09.990Z,5.03
2023-04-22T06:55:37.931Z,5.73
2023-04-22T06:58:05.897Z,5.10
2023-04-22T07:00:35.004Z,5.70
2023-04-22T07:03:03.055Z,5.10
2023-04-22T07:05:31.072Z,4.27
2023-04-22T07:07:58.978Z,5.73
2023-04-22T07:10:28.274Z,5.90
2023-04-22T07:12:56.191Z,6.27
2023-04-22T07:15:24.127Z,5.77
2023-04-22T07:17:52.067Z,6.30
2023-04-22T07:20:20.071Z,5.33
2023-04-22T07:22:48.050Z,6.80
2023-04-22T07:25:16.043Z,6.50
2023-04-22T07:27:45.349Z,6.80
2023-04-22T07:30:14.075Z,7.20
2023-04-22T07:32:42.080Z,5.90
2023-04-22T07:35:10.300Z,5.10
2023-04-22T07:37:38.331Z,5.60
2023-04-22T07:40:11.679Z,4.80
2023-04-22T07:42:39.886Z,4.37
2023-04-22T07:45:10.089Z,5.20
2023-04-22T07:47:38.087Z,4.60
2023-04-22T07:50:07.145Z,5.03
2023-04-22T07:52:35.099Z,4.10
2023-04-22T07:55:03.076Z,3.87
2023-04-22T07:57:31.016Z,3.60
2023-04-22T07:59:59.254Z,3.10
2023-04-22T08:02:28.693Z,3.00
2023-04-22T08:04:56.749Z,3.77
2023-04-22T08:09:56.701Z,3.50
2023-04-22T08:12:24.782Z,3.30
2023-04-22T08:14:52.734Z,2.80
2023-04-22T08:17:22.159Z,2.50
2023-04-22T08:19:51.609Z,3.97
2023-04-22T08:22:19.579Z,2.57
2023-04-22T08:24:47.554Z,3.47
2023-04-22T08:27:15.487Z,3.73
2023-04-22T08:29:43.583Z,3.30
2023-04-22T08:32:11.721Z,3.70
2023-04-22T08:34:40.374Z,4.50
2023-04-22T08:37:10.161Z,3.80
2023-04-22T08:39:38.362Z,3.17
2023-04-22T08:42:06.654Z,3.77
2023-04-22T08:44:35.507Z,4.07
2023-04-22T08:47:04.003Z,3.57
2023-04-22T08:49:32.023Z,3.50
2023-04-22T08:52:00.006Z,3.33
2023-04-22T08:54:29.420Z,3.70
2023-04-22T08:56:57.392Z,3.63
2023-04-22T08:59:25.364Z,3.20
2023-04-22T09:01:54.298Z,4.30
2023-04-22T09:04:22.418Z,4.47
2023-04-22T09:06:50.445Z,4.40
2023-04-22T09:09:18.418Z,3.93
2023-04-22T09:11:47.699Z,4.70
2023-04-22T09:14:15.647Z,4.70
2023-04-22T09:16:44.065Z,4.00
2023-04-22T09:19:15.408Z,4.10
2023-04-22T09:21:43.650Z,2.77
2023-04-22T09:24:12.417Z,2.90
2023-04-22T09:26:40.887Z,2.70
2023-04-22T09:29:14.343Z,3.17
2023-04-22T09:31:42.456Z,3.37
2023-04-22T09:34:10.500Z,2.60
2023-04-22T09:36:38.545Z,4.10
2023-04-22T09:39:08.214Z,2.53
2023-04-22T09:41:37.324Z,2.50
2023-04-22T09:44:05.726Z,2.40
2023-04-22T09:46:35.120Z,2.30
2023-04-22T09:49:03.117Z,2.70
2023-04-22T09:51:31.999Z,1.83
2023-04-22T09:54:01.136Z,3.50
2023-04-22T09:56:42.432Z,2.87
2023-04-22T09:59:10.556Z,2.70
2023-04-22T10:01:41.213Z,2.83
2023-04-22T10:04:09.955Z,3.23
2023-04-22T10:06:38.392Z,2.23
2023-04-22T10:09:09.296Z,2.40
2023-04-22T10:11:37.716Z,2.37
2023-04-22T10:14:05.700Z,2.80
2023-04-22T10:16:34.262Z,2.87
2023-04-22T10:19:04.568Z,2.40
2023-04-22T10:21:32.618Z,2.70
2023-04-22T10:24:00.837Z,2.73
2023-04-22T10:26:49.311Z,2.30
2023-04-22T10:29:17.975Z,2.40
2023-04-22T10:31:46.589Z,2.73
2023-04-22T10:34:16.280Z,2.47
2023-04-22T10:36:57.459Z,3.00
2023-04-22T10:39:25.548Z,2.07
2023-04-22T10:41:54.964Z,1.80
2023-04-22T10:44:23.238Z,2.23
2023-04-22T10:46:58.651Z,2.13
2023-04-22T10:49:28.156Z,2.20
2023-04-22T10:51:58.455Z,1.50
2023-04-22T10:54:57.840Z,2.20
2023-04-22T10:57:31.225Z,1.90
2023-04-22T11:00:00.438Z,2.73
2023-04-22T11:02:28.485Z,2.13
2023-04-22T11:05:22.926Z,1.83
2023-04-22T11:07:54.384Z,1.80
2023-04-22T11:10:33.056Z,1.40
2023-04-22T11:13:02.086Z,2.30
2023-04-22T11:15:30.540Z,2.13
2023-04-22T11:17:58.611Z,2.17
2023-04-22T11:20:28.555Z,3.00
2023-04-22T11:22:57.074Z,2.70
2023-04-22T11:25:25.373Z,2.33
2023-04-22T11:27:53.507Z,1.90
2023-04-22T11:30:21.977Z,1.80
2023-04-22T11:32:50.495Z,2.10
2023-04-22T11:35:20.159Z,1.77
2023-04-22T11:37:50.223Z,2.00
2023-04-22T11:40:29.057Z,1.50
2023-04-22T11:42:58.510Z,1.27
2023-04-22T11:45:26.742Z,1.10
2023-04-22T11:47:55.377Z,1.73
2023-04-22T11:50:24.594Z,1.23
2023-04-22T11:52:54.627Z,1.40
2023-04-22T11:55:23.836Z,1.67
2023-04-22T11:57:56.422Z,2.03
2023-04-22T12:00:24.820Z,1.70
2023-04-22T12:03:00.412Z,1.63
2023-04-22T12:05:39.277Z,2.10
2023-04-22T12:08:12.055Z,1.90
2023-04-22T12:10:43.963Z,1.50
2023-04-22T12:13:12.641Z,2.07
2023-04-22T12:15:42.334Z,1.60
2023-04-22T12:18:10.497Z,1.70
2023-04-22T12:20:39.903Z,1.27
2023-04-22T12:23:14.591Z,1.63
2023-04-22T12:25:43.077Z,1.67
2023-04-22T12:28:11.439Z,1.40
2023-04-22T12:30:39.377Z,1.50
2023-04-22T12:33:07.579Z,1.73
2023-04-22T12:35:35.656Z,1.50
2023-04-22T12:38:03.630Z,1.40
2023-04-22T12:40:33.004Z,1.83
2023-04-22T12:43:01.229Z,1.87
2023-04-22T12:45:29.214Z,1.93
2023-04-22T12:47:58.029Z,1.90
2023-04-22T12:50:26.044Z,1.80
2023-04-22T12:52:54.009Z,2.27
2023-04-22T12:55:22.280Z,2.20
2023-04-22T12:57:52.057Z,3.13
2023-04-22T13:00:20.051Z,2.43
2023-04-22T13:02:48.937Z,2.20
2023-04-22T13:05:17.115Z,2.73
2023-04-22T13:07:46.908Z,2.83
2023-04-22T13:10:22.915Z,3.00
2023-04-22T13:12:52.642Z,2.23
2023-04-22T13:15:21.497Z,2.50
2023-04-22T13:17:51.017Z,2.67
2023-04-22T13:20:19.548Z,1.90
2023-04-22T13:22:48.138Z,2.10
2023-04-22T13:25:16.053Z,2.23
2023-04-22T13:27:44.009Z,2.10
2023-04-22T13:30:14.343Z,2.03
2023-04-22T13:32:42.351Z,2.13
2023-04-22T13:35:11.018Z,2.07
2023-04-22T13:37:39.337Z,2.13
2023-04-22T13:40:08.683Z,1.80
2023-04-22T13:42:36.852Z,1.80
2023-04-22T13:45:05.296Z,2.17
2023-04-22T13:47:34.644Z,2.40
2023-04-22T13:50:03.369Z,2.20
2023-04-22T13:52:31.328Z,2.63
2023-04-22T13:54:59.329Z,2.33
2023-04-22T13:57:27.482Z,1.80
2023-04-22T13:59:55.407Z,1.83
2023-04-22T14:02:23.391Z,2.40
2023-04-22T14:04:52.851Z,2.77
2023-04-22T14:07:20.829Z,2.50
2023-04-22T14:09:48.733Z,2.60
2023-04-22T14:12:16.665Z,1.90
2023-04-22T14:14:44.746Z,2.23
2023-04-22T14:17:12.785Z,2.37
2023-04-22T14:19:41.145Z,3.33
2023-04-22T14:22:10.737Z,2.57
2023-04-22T14:24:38.654Z,3.10
2023-04-22T14:27:06.823Z,2.40
2023-04-22T14:29:34.774Z,2.03
2023-04-22T14:32:02.979Z,2.37
2023-04-22T14:34:30.942Z,2.50
2023-04-22T14:36:59.481Z,2.20
2023-04-22T14:39:28.800Z,2.43
2023-04-22T14:41:57.969Z,2.50
2023-04-22T14:44:26.040Z,2.50
2023-04-22T14:46:53.965Z,2.73
2023-04-22T14:49:21.870Z,1.97
2023-04-22T14:51:49.829Z,2.13
2023-04-22T14:54:17.779Z,1.97
2023-04-22T14:56:47.559Z,2.90
2023-04-22T14:59:15.524Z,2.30
2023-04-22T15:01:43.651Z,2.30
2023-04-22T15:04:13.586Z,2.43
2023-04-22T15:06:41.664Z,1.77
2023-04-22T15:09:09.615Z,2.07
2023-04-22T15:11:37.580Z,1.73
2023-04-22T15:14:06.866Z,2.37
2023-04-22T15:16:34.845Z,2.10
2023-04-22T15:19:02.832Z,2.37
2023-04-22T15:21:30.790Z,2.90
2023-04-22T15:23:58.737Z,2.83
2023-04-22T15:26:26.682Z,2.23
2023-04-22T15:28:54.638Z,2.00
2023-04-22T15:31:24.037Z,2.83
2023-04-22T15:33:52.068Z,3.13
2023-04-22T15:36:21.659Z,2.20
2023-04-22T15:38:49.721Z,2.57
2023-04-22T15:41:17.646Z,2.60
2023-04-22T15:43:45.700Z,3.40
2023-04-22T15:46:14.681Z,2.17
2023-04-22T15:48:47.187Z,2.30
2023-04-22T15:51:15.207Z,2.30
2023-04-22T15:53:45.356Z,2.90
2023-04-22T15:56:13.346Z,3.40
2023-04-22T15:58:41.334Z,2.20
2023-04-22T16:01:18.935Z,2.50
2023-04-22T16:03:49.371Z,2.67
2023-04-22T16:06:18.120Z,2.87
2023-04-22T16:08:46.489Z,2.97
2023-04-22T16:11:15.296Z,2.23
2023-04-22T16:13:43.247Z,2.93
2023-04-22T16:16:11.321Z,3.20
2023-04-22T16:18:39.982Z,2.13
2023-04-22T16:21:11.380Z,2.90
2023-04-22T16:23:39.332Z,2.73
2023-04-22T16:26:07.278Z,3.10
2023-04-22T16:28:35.262Z,3.33
2023-04-22T16:31:03.414Z,2.90
2023-04-22T16:33:31.412Z,4.37
2023-04-22T16:35:59.724Z,4.00
2023-04-22T16:38:29.008Z,5.23
2023-04-22T16:40:56.963Z,4.67
2023-04-22T16:43:24.939Z,3.73
2023-04-22T16:45:52.986Z,4.33
2023-04-22T16:48:20.965Z,4.17
2023-04-22T16:50:49.016Z,3.60
2023-04-22T16:53:16.961Z,4.00
2023-04-22T16:55:46.303Z,4.83
2023-04-22T16:58:14.272Z,6.13
2023-04-22T17:00:42.254Z,5.70
2023-04-22T17:03:12.051Z,6.70
2023-04-22T17:05:40.285Z,6.00
2023-04-22T17:08:08.609Z,7.73
2023-04-22T17:10:41.394Z,8.10
2023-04-22T17:13:10.756Z,9.07
2023-04-22T17:15:38.807Z,8.73
2023-04-22T17:18:07.957Z,7.10
2023-04-22T17:20:36.011Z,6.30
2023-04-22T17:23:04.090Z,7.17
2023-04-22T17:25:32.165Z,7.77
2023-04-22T17:28:00.158Z,5.23
2023-04-22T17:30:29.440Z,6.40
2023-04-22T17:32:57.488Z,6.10
2023-04-22T17:35:25.508Z,5.30
2023-04-22T17:37:53.766Z,6.67
2023-04-22T17:40:22.016Z,7.80
2023-04-22T17:42:50.017Z,7.20
2023-04-22T17:45:17.943Z,7.10
2023-04-22T17:47:48.562Z,6.93
2023-04-22T17:50:16.639Z,7.23
2023-04-22T17:52:44.675Z,6.90
2023-04-22T17:55:12.610Z,8.37
2023-04-22T17:57:40.909Z,7.33
2023-04-22T18:00:11.126Z,6.57
2023-04-22T18:02:39.216Z,6.47
2023-04-22T18:05:09.364Z,5.77
2023-04-22T18:07:37.293Z,5.97
2023-04-22T18:10:05.832Z,6.30
2023-04-22T18:12:33.766Z,5.30
2023-04-22T18:15:01.747Z,6.20
2023-04-22T18:17:29.667Z,5.20
2023-04-22T18:20:06.331Z,7.20
2023-04-22T18:22:43.737Z,6.70
2023-04-22T18:25:11.662Z,7.07
2023-04-22T18:27:39.644Z,5.37
2023-04-22T18:30:08.617Z,6.23
2023-04-22T18:32:37.336Z,5.13
2023-04-22T18:35:06.135Z,4.60
2023-04-22T18:37:34.813Z,5.73
2023-04-22T18:40:05.851Z,5.77
2023-04-22T18:42:33.763Z,5.03
2023-04-22T18:45:04.242Z,6.63
2023-04-22T18:47:32.657Z,13.10
2023-04-22T18:50:00.956Z,7.20
2023-04-22T18:52:28.914Z,7.40
2023-04-22T18:54:56.901Z,7.60
2023-04-22T18:57:26.553Z,8.60
2023-04-22T18:59:55.038Z,7.50
2023-04-22T19:02:23.063Z,7.20
2023-04-22T19:04:51.249Z,8.93
2023-04-22T19:07:19.234Z,10.20
2023-04-22T19:09:47.159Z,8.50
2023-04-22T19:12:16.729Z,8.20
2023-04-22T19:14:47.193Z,5.93
2023-04-22T19:17:15.158Z,7.70
2023-04-22T19:19:43.506Z,6.50
2023-04-22T19:22:12.476Z,7.13
2023-04-22T19:24:40.421Z,6.73
2023-04-22T19:27:12.488Z,6.47
2023-04-22T19:29:41.576Z,6.30
2023-04-22T19:32:11.643Z,6.33
2023-04-22T19:34:39.650Z,6.23
2023-04-22T19:37:08.340Z,6.40
2023-04-22T19:39:36.733Z,6.80
2023-04-22T19:42:04.835Z,6.67
2023-04-22T19:44:32.810Z,6.63
2023-04-22T19:47:00.922Z,4.87
2023-04-22T19:49:32.486Z,7.00
2023-04-22T19:52:00.406Z,7.67
2023-04-22T19:54:28.974Z,9.53
2023-04-22T19:56:57.997Z,10.43
2023-04-22T19:59:28.056Z,13.07
2023-04-22T20:01:56.420Z,10.60
2023-04-22T20:04:25.219Z,9.93
2023-04-22T20:06:54.676Z,8.77
2023-04-22T20:09:22.665Z,10.60
2023-04-22T20:11:50.612Z,10.77
2023-04-22T20:14:18.567Z,10.50
2023-04-22T20:16:47.902Z,10.83
2023-04-22T20:19:16.217Z,12.10
2023-04-22T20:21:44.158Z,11.73
2023-04-22T20:24:19.054Z,11.17
2023-04-22T20:26:47.897Z,9.73
2023-04-22T20:29:15.884Z,10.43
2023-04-22T20:31:44.163Z,9.80
2023-04-22T20:34:13.132Z,9.50
2023-04-22T20:36:41.077Z,8.60
2023-04-22T20:39:10.794Z,8.27
2023-04-22T20:41:41.015Z,9.13
2023-04-22T20:44:09.302Z,8.40
2023-04-22T20:46:37.889Z,7.87
2023-04-22T20:49:05.919Z,6.40
2023-04-22T20:51:33.897Z,7.20
2023-04-22T20:54:01.825Z,8.90
2023-04-22T20:56:29.814Z,9.27
2023-04-22T20:58:59.163Z,9.17
2023-04-22T21:01:27.521Z,8.10
2023-04-22T21:03:57.714Z,7.23
2023-04-22T21:06:26.348Z,6.73
2023-04-22T21:08:54.358Z,7.57
2023-04-22T21:11:22.782Z,7.80
2023-04-22T21:13:51.043Z,8.03
2023-04-22T21:16:20.698Z,6.87
2023-04-22T21:18:48.695Z,6.40
2023-04-22T21:21:17.178Z,7.40
2023-04-22T21:23:45.644Z,6.40
2023-04-22T21:26:13.601Z,5.60
2023-04-22T21:28:42.137Z,5.37
2023-04-22T21:31:11.090Z,4.87
2023-04-22T21:33:40.452Z,4.30
2023-04-22T21:36:08.472Z,4.67
2023-04-22T21:38:36.409Z,4.10
2023-04-22T21:41:04.338Z,5.10
2023-04-22T21:43:32.399Z,5.07
2023-04-22T21:46:01.034Z,4.90
2023-04-22T21:48:29.045Z,5.17
2023-04-22T21:50:58.352Z,5.30
2023-04-22T21:53:26.351Z,5.30
2023-04-22T21:55:54.297Z,4.37
2023-04-22T21:58:22.325Z,5.43
2023-04-22T22:00:50.302Z,4.40
2023-04-22T22:03:18.322Z,4.50
2023-04-22T22:05:46.349Z,4.67
2023-04-22T22:08:15.678Z,3.80
2023-04-22T22:10:44.014Z,3.80
2023-04-22T22:13:11.958Z,3.47
2023-04-22T22:15:39.924Z,3.60
2023-04-22T22:18:07.900Z,3.87
2023-04-22T22:20:36.656Z,3.87
2023-04-22T22:23:04.593Z,3.93
2023-04-22T22:25:33.890Z,4.23
2023-04-22T22:28:01.910Z,4.10
2023-04-22T22:30:30.086Z,3.77
2023-04-22T22:32:58.078Z,4.70
2023-04-22T22:35:25.988Z,4.70
2023-04-22T22:37:53.902Z,5.37
2023-04-22T22:40:21.921Z,5.20
2023-04-22T22:42:51.290Z,4.93
2023-04-22T22:45:19.245Z,5.47
2023-04-22T22:47:47.232Z,4.33
2023-04-22T22:50:15.600Z,4.60
2023-04-22T22:52:43.574Z,4.50
2023-04-22T22:55:11.929Z,4.70
2023-04-22T22:57:39.861Z,5.77
2023-04-22T23:00:11.967Z,6.27
2023-04-22T23:02:40.000Z,4.70
2023-04-22T23:05:10.920Z,5.13
2023-04-22T23:07:39.002Z,5.10
2023-04-22T23:10:08.298Z,6.30
2023-04-22T23:12:36.436Z,5.57
2023-04-22T23:15:04.710Z,5.63
2023-04-22T23:17:34.101Z,5.67
2023-04-22T23:20:02.412Z,5.60
2023-04-22T23:22:30.814Z,4.67
2023-04-22T23:24:59.226Z,6.17
2023-04-22T23:27:27.743Z,5.57
2023-04-22T23:29:56.194Z,5.20
2023-04-22T23:32:26.552Z,4.40
2023-04-22T23:34:56.085Z,6.40
2023-04-22T23:37:24.032Z,4.47
2023-04-22T23:39:51.995Z,5.33
2023-04-22T23:42:19.952Z,6.10
2023-04-22T23:44:47.928Z,4.03
2023-04-22T23:47:15.867Z,4.30
2023-04-22T23:49:43.784Z,4.50
2023-04-22T23:52:14.152Z,4.63
2023-04-22T23:54:44.686Z,4.77
2023-04-22T23:57:13.250Z,5.30
2023-04-22T23:59:41.722Z,6.10
